sensor_id;sensor_type;location;lat;lon;timestamp;P1;durP1;ratioP1;P2;durP2;ratioP2
9771;SDS011;4925;52.588;13.370;2023-02-11T00:00:12;35.53;;;21.17;;
9771;SDS011;4925;52.588;13.370;2023-02-11T00:02:38;37.83;;;21.07;;
9771;SDS011;4925;52.588;13.370;2023-02-11T00:05:04;35.27;;;18.83;;
9771;SDS011;4925;52.588;13.370;2023-02-11T00:07:30;37.37;;;18.60;;
9771;SDS011;4925;52.588;13.370;2023-02-11T00:09:57;36.13;;;21.03;;
9771;SDS011;4925;52.588;13.370;2023-02-11T00:12:23;40.63;;;20.47;;
9771;SDS011;4925;52.588;13.370;2023-02-11T00:14:49;41.30;;;21.13;;
9771;SDS011;4925;52.588;13.370;2023-02-11T00:17:15;34.47;;;19.90;;
9771;SDS011;4925;52.588;13.370;2023-02-11T00:19:41;37.83;;;20.73;;
9771;SDS011;4925;52.588;13.370;2023-02-11T00:22:07;36.83;;;20.20;;
9771;SDS011;4925;52.588;13.370;2023-02-11T00:24:33;37.53;;;19.57;;
9771;SDS011;4925;52.588;13.370;2023-02-11T00:27:00;37.77;;;20.77;;
9771;SDS011;4925;52.588;13.370;2023-02-11T00:29:26;39.03;;;20.23;;
9771;SDS011;4925;52.588;13.370;2023-02-11T00:31:52;34.40;;;17.97;;
9771;SDS011;4925;52.588;13.370;2023-02-11T00:34:18;32.37;;;19.23;;
9771;SDS011;4925;52.588;13.370;2023-02-11T00:36:43;34.70;;;20.03;;
9771;SDS011;4925;52.588;13.370;2023-02-11T00:39:09;34.77;;;18.87;;
9771;SDS011;4925;52.588;13.370;2023-02-11T00:41:35;35.43;;;20.23;;
9771;SDS011;4925;52.588;13.370;2023-02-11T00:44:01;36.97;;;19.93;;
9771;SDS011;4925;52.588;13.370;2023-02-11T00:46:27;39.07;;;21.17;;
9771;SDS011;4925;52.588;13.370;2023-02-11T00:48:54;34.87;;;19.03;;
9771;SDS011;4925;52.588;13.370;2023-02-11T00:51:22;36.47;;;20.33;;
9771;SDS011;4925;52.588;13.370;2023-02-11T00:53:48;36.80;;;19.37;;
9771;SDS011;4925;52.588;13.370;2023-02-11T00:56:14;32.97;;;18.63;;
9771;SDS011;4925;52.588;13.370;2023-02-11T00:58:39;37.33;;;19.83;;
9771;SDS011;4925;52.588;13.370;2023-02-11T01:01:05;36.03;;;20.23;;
9771;SDS011;4925;52.588;13.370;2023-02-11T01:03:31;39.83;;;20.13;;
9771;SDS011;4925;52.588;13.370;2023-02-11T01:05:58;41.10;;;21.67;;
9771;SDS011;4925;52.588;13.370;2023-02-11T01:08:23;35.50;;;19.40;;
9771;SDS011;4925;52.588;13.370;2023-02-11T01:10:59;37.33;;;20.30;;
9771;SDS011;4925;52.588;13.370;2023-02-11T01:13:27;38.47;;;21.50;;
9771;SDS011;4925;52.588;13.370;2023-02-11T01:15:54;36.77;;;19.57;;
9771;SDS011;4925;52.588;13.370;2023-02-11T01:18:21;35.30;;;19.33;;
9771;SDS011;4925;52.588;13.370;2023-02-11T01:20:47;37.70;;;19.87;;
9771;SDS011;4925;52.588;13.370;2023-02-11T01:23:14;38.93;;;22.30;;
9771;SDS011;4925;52.588;13.370;2023-02-11T01:25:40;36.50;;;19.77;;
9771;SDS011;4925;52.588;13.370;2023-02-11T01:28:06;39.37;;;20.13;;
9771;SDS011;4925;52.588;13.370;2023-02-11T01:30:36;37.13;;;20.50;;
9771;SDS011;4925;52.588;13.370;2023-02-11T01:33:01;34.40;;;20.10;;
9771;SDS011;4925;52.588;13.370;2023-02-11T01:35:27;35.27;;;20.40;;
9771;SDS011;4925;52.588;13.370;2023-02-11T01:37:53;34.90;;;20.50;;
9771;SDS011;4925;52.588;13.370;2023-02-11T01:40:19;44.33;;;21.00;;
9771;SDS011;4925;52.588;13.370;2023-02-11T01:42:44;36.47;;;19.00;;
9771;SDS011;4925;52.588;13.370;2023-02-11T01:48:12;36.47;;;18.00;;
9771;SDS011;4925;52.588;13.370;2023-02-11T01:50:42;36.10;;;20.77;;
9771;SDS011;4925;52.588;13.370;2023-02-11T01:53:11;37.40;;;21.20;;
9771;SDS011;4925;52.588;13.370;2023-02-11T01:55:55;35.77;;;20.70;;
9771;SDS011;4925;52.588;13.370;2023-02-11T01:58:41;35.90;;;19.57;;
9771;SDS011;4925;52.588;13.370;2023-02-11T02:01:10;34.37;;;19.70;;
9771;SDS011;4925;52.588;13.370;2023-02-11T02:03:40;36.83;;;20.47;;
9771;SDS011;4925;52.588;13.370;2023-02-11T02:06:21;33.63;;;19.53;;
9771;SDS011;4925;52.588;13.370;2023-02-11T02:08:55;32.80;;;18.60;;
9771;SDS011;4925;52.588;13.370;2023-02-11T02:11:32;34.50;;;20.17;;
9771;SDS011;4925;52.588;13.370;2023-02-11T02:13:59;37.87;;;21.27;;
9771;SDS011;4925;52.588;13.370;2023-02-11T02:16:28;35.97;;;20.30;;
9771;SDS011;4925;52.588;13.370;2023-02-11T02:22:19;42.03;;;21.17;;
9771;SDS011;4925;52.588;13.370;2023-02-11T02:31:02;34.00;;;19.33;;
9771;SDS011;4925;52.588;13.370;2023-02-11T02:33:39;34.17;;;19.57;;
9771;SDS011;4925;52.588;13.370;2023-02-11T02:38:53;39.17;;;20.23;;
9771;SDS011;4925;52.588;13.370;2023-02-11T02:41:26;41.30;;;20.90;;
9771;SDS011;4925;52.588;13.370;2023-02-11T02:43:56;36.53;;;21.43;;
9771;SDS011;4925;52.588;13.370;2023-02-11T02:48:50;40.63;;;21.87;;
9771;SDS011;4925;52.588;13.370;2023-02-11T02:54:06;37.13;;;20.80;;
9771;SDS011;4925;52.588;13.370;2023-02-11T02:57:40;36.27;;;20.03;;
9771;SDS011;4925;52.588;13.370;2023-02-11T03:11:14;37.20;;;22.93;;
9771;SDS011;4925;52.588;13.370;2023-02-11T03:13:42;37.50;;;21.47;;
9771;SDS011;4925;52.588;13.370;2023-02-11T03:16:12;32.90;;;20.63;;
9771;SDS011;4925;52.588;13.370;2023-02-11T03:18:43;38.37;;;22.73;;
9771;SDS011;4925;52.588;13.370;2023-02-11T03:21:13;38.23;;;22.53;;
9771;SDS011;4925;52.588;13.370;2023-02-11T03:23:43;40.97;;;23.63;;
9771;SDS011;4925;52.588;13.370;2023-02-11T03:26:22;37.03;;;20.80;;
9771;SDS011;4925;52.588;13.370;2023-02-11T03:31:36;36.60;;;22.17;;
9771;SDS011;4925;52.588;13.370;2023-02-11T03:34:14;40.57;;;22.63;;
9771;SDS011;4925;52.588;13.370;2023-02-11T03:36:50;35.67;;;21.17;;
9771;SDS011;4925;52.588;13.370;2023-02-11T03:42:08;38.90;;;22.83;;
9771;SDS011;4925;52.588;13.370;2023-02-11T03:44:39;39.00;;;23.47;;
9771;SDS011;4925;52.588;13.370;2023-02-11T03:47:09;42.20;;;24.63;;
9771;SDS011;4925;52.588;13.370;2023-02-11T03:49:38;40.27;;;23.30;;
9771;SDS011;4925;52.588;13.370;2023-02-11T03:52:06;39.47;;;22.13;;
9771;SDS011;4925;52.588;13.370;2023-02-11T03:54:35;40.00;;;22.33;;
9771;SDS011;4925;52.588;13.370;2023-02-11T03:57:02;39.67;;;23.60;;
9771;SDS011;4925;52.588;13.370;2023-02-11T03:59:28;41.47;;;24.47;;
9771;SDS011;4925;52.588;13.370;2023-02-11T04:01:54;40.40;;;22.50;;
9771;SDS011;4925;52.588;13.370;2023-02-11T04:04:20;43.97;;;23.50;;
9771;SDS011;4925;52.588;13.370;2023-02-11T04:06:46;42.17;;;23.03;;
9771;SDS011;4925;52.588;13.370;2023-02-11T04:09:11;40.20;;;23.90;;
9771;SDS011;4925;52.588;13.370;2023-02-11T04:11:37;36.70;;;23.77;;
9771;SDS011;4925;52.588;13.370;2023-02-11T04:14:03;41.07;;;24.73;;
9771;SDS011;4925;52.588;13.370;2023-02-11T04:16:28;36.27;;;23.73;;
9771;SDS011;4925;52.588;13.370;2023-02-11T04:18:55;41.43;;;23.10;;
9771;SDS011;4925;52.588;13.370;2023-02-11T04:21:21;37.77;;;21.00;;
9771;SDS011;4925;52.588;13.370;2023-02-11T04:23:47;38.00;;;23.13;;
9771;SDS011;4925;52.588;13.370;2023-02-11T04:26:12;38.13;;;23.83;;
9771;SDS011;4925;52.588;13.370;2023-02-11T04:28:38;39.07;;;23.90;;
9771;SDS011;4925;52.588;13.370;2023-02-11T04:31:04;41.67;;;25.20;;
9771;SDS011;4925;52.588;13.370;2023-02-11T04:33:30;41.87;;;23.60;;
9771;SDS011;4925;52.588;13.370;2023-02-11T04:35:55;42.53;;;24.77;;
9771;SDS011;4925;52.588;13.370;2023-02-11T04:38:21;46.40;;;25.60;;
9771;SDS011;4925;52.588;13.370;2023-02-11T04:40:48;43.60;;;24.67;;
9771;SDS011;4925;52.588;13.370;2023-02-11T04:43:14;41.53;;;23.73;;
9771;SDS011;4925;52.588;13.370;2023-02-11T04:45:40;41.00;;;24.17;;
9771;SDS011;4925;52.588;13.370;2023-02-11T04:48:05;45.57;;;26.27;;
9771;SDS011;4925;52.588;13.370;2023-02-11T04:50:31;41.13;;;25.93;;
9771;SDS011;4925;52.588;13.370;2023-02-11T04:52:57;49.63;;;27.87;;
9771;SDS011;4925;52.588;13.370;2023-02-11T04:55:23;46.77;;;28.43;;
9771;SDS011;4925;52.588;13.370;2023-02-11T04:57:48;46.80;;;26.73;;
9771;SDS011;4925;52.588;13.370;2023-02-11T05:00:14;46.83;;;27.87;;
9771;SDS011;4925;52.588;13.370;2023-02-11T05:02:40;46.27;;;26.77;;
9771;SDS011;4925;52.588;13.370;2023-02-11T05:05:06;51.37;;;27.33;;
9771;SDS011;4925;52.588;13.370;2023-02-11T05:07:32;47.77;;;26.77;;
9771;SDS011;4925;52.588;13.370;2023-02-11T05:09:58;48.30;;;26.87;;
9771;SDS011;4925;52.588;13.370;2023-02-11T05:12:23;50.47;;;27.17;;
9771;SDS011;4925;52.588;13.370;2023-02-11T05:14:49;46.83;;;27.83;;
9771;SDS011;4925;52.588;13.370;2023-02-11T05:17:15;43.43;;;26.77;;
9771;SDS011;4925;52.588;13.370;2023-02-11T05:19:40;51.70;;;27.13;;
9771;SDS011;4925;52.588;13.370;2023-02-11T05:22:06;43.00;;;26.43;;
9771;SDS011;4925;52.588;13.370;2023-02-11T05:24:32;47.60;;;28.70;;
9771;SDS011;4925;52.588;13.370;2023-02-11T05:26:59;43.13;;;27.37;;
9771;SDS011;4925;52.588;13.370;2023-02-11T05:29:25;53.53;;;30.33;;
9771;SDS011;4925;52.588;13.370;2023-02-11T05:31:51;47.53;;;28.37;;
9771;SDS011;4925;52.588;13.370;2023-02-11T05:34:18;49.90;;;28.27;;
9771;SDS011;4925;52.588;13.370;2023-02-11T05:36:44;49.13;;;28.63;;
9771;SDS011;4925;52.588;13.370;2023-02-11T05:39:10;51.63;;;29.87;;
9771;SDS011;4925;52.588;13.370;2023-02-11T05:41:35;47.00;;;26.73;;
9771;SDS011;4925;52.588;13.370;2023-02-11T05:44:02;50.83;;;27.60;;
9771;SDS011;4925;52.588;13.370;2023-02-11T05:46:27;49.30;;;27.37;;
9771;SDS011;4925;52.588;13.370;2023-02-11T05:48:53;54.97;;;29.70;;
9771;SDS011;4925;52.588;13.370;2023-02-11T05:51:20;50.40;;;29.37;;
9771;SDS011;4925;52.588;13.370;2023-02-11T05:53:46;52.47;;;28.47;;
9771;SDS011;4925;52.588;13.370;2023-02-11T05:56:12;56.17;;;27.87;;
9771;SDS011;4925;52.588;13.370;2023-02-11T05:58:38;58.60;;;30.43;;
9771;SDS011;4925;52.588;13.370;2023-02-11T06:01:04;53.33;;;28.33;;
9771;SDS011;4925;52.588;13.370;2023-02-11T06:03:30;54.37;;;31.37;;
9771;SDS011;4925;52.588;13.370;2023-02-11T06:05:55;57.33;;;30.70;;
9771;SDS011;4925;52.588;13.370;2023-02-11T06:08:21;57.43;;;32.53;;
9771;SDS011;4925;52.588;13.370;2023-02-11T06:10:47;55.67;;;31.27;;
9771;SDS011;4925;52.588;13.370;2023-02-11T06:13:13;59.90;;;32.90;;
9771;SDS011;4925;52.588;13.370;2023-02-11T06:15:38;54.27;;;31.67;;
9771;SDS011;4925;52.588;13.370;2023-02-11T06:18:04;51.60;;;28.47;;
9771;SDS011;4925;52.588;13.370;2023-02-11T06:20:31;51.67;;;29.43;;
9771;SDS011;4925;52.588;13.370;2023-02-11T06:22:57;51.90;;;30.77;;
9771;SDS011;4925;52.588;13.370;2023-02-11T06:25:23;56.93;;;30.27;;
9771;SDS011;4925;52.588;13.370;2023-02-11T06:27:49;55.07;;;31.20;;
9771;SDS011;4925;52.588;13.370;2023-02-11T06:30:14;61.43;;;33.17;;
9771;SDS011;4925;52.588;13.370;2023-02-11T06:32:40;62.53;;;31.83;;
9771;SDS011;4925;52.588;13.370;2023-02-11T06:35:06;48.60;;;29.47;;
9771;SDS011;4925;52.588;13.370;2023-02-11T06:37:32;66.30;;;32.17;;
9771;SDS011;4925;52.588;13.370;2023-02-11T06:39:58;61.40;;;35.20;;
9771;SDS011;4925;52.588;13.370;2023-02-11T06:42:24;60.03;;;33.00;;
9771;SDS011;4925;52.588;13.370;2023-02-11T06:44:50;61.87;;;33.63;;
9771;SDS011;4925;52.588;13.370;2023-02-11T06:47:15;65.83;;;34.03;;
9771;SDS011;4925;52.588;13.370;2023-02-11T06:49:41;58.30;;;31.67;;
9771;SDS011;4925;52.588;13.370;2023-02-11T06:52:07;58.80;;;31.80;;
9771;SDS011;4925;52.588;13.370;2023-02-11T06:54:32;63.03;;;34.03;;
9771;SDS011;4925;52.588;13.370;2023-02-11T06:56:58;56.50;;;33.37;;
9771;SDS011;4925;52.588;13.370;2023-02-11T06:59:24;62.13;;;35.87;;
9771;SDS011;4925;52.588;13.370;2023-02-11T07:01:49;57.00;;;33.00;;
9771;SDS011;4925;52.588;13.370;2023-02-11T07:04:15;58.10;;;32.83;;
9771;SDS011;4925;52.588;13.370;2023-02-11T07:06:41;62.67;;;32.73;;
9771;SDS011;4925;52.588;13.370;2023-02-11T07:09:06;60.73;;;34.43;;
9771;SDS011;4925;52.588;13.370;2023-02-11T07:11:32;63.70;;;35.90;;
9771;SDS011;4925;52.588;13.370;2023-02-11T07:14:03;61.23;;;33.63;;
9771;SDS011;4925;52.588;13.370;2023-02-11T07:16:30;61.77;;;33.43;;
9771;SDS011;4925;52.588;13.370;2023-02-11T07:18:56;61.47;;;33.97;;
9771;SDS011;4925;52.588;13.370;2023-02-11T07:21:23;70.40;;;36.40;;
9771;SDS011;4925;52.588;13.370;2023-02-11T07:23:48;64.03;;;35.63;;
9771;SDS011;4925;52.588;13.370;2023-02-11T07:26:16;58.07;;;33.70;;
9771;SDS011;4925;52.588;13.370;2023-02-11T07:28:43;66.70;;;34.67;;
9771;SDS011;4925;52.588;13.370;2023-02-11T07:31:09;67.07;;;33.73;;
9771;SDS011;4925;52.588;13.370;2023-02-11T07:33:50;58.53;;;33.17;;
9771;SDS011;4925;52.588;13.370;2023-02-11T07:36:17;59.93;;;34.27;;
9771;SDS011;4925;52.588;13.370;2023-02-11T07:38:43;61.37;;;34.17;;
9771;SDS011;4925;52.588;13.370;2023-02-11T07:41:10;67.83;;;35.80;;
9771;SDS011;4925;52.588;13.370;2023-02-11T07:43:38;57.90;;;33.80;;
9771;SDS011;4925;52.588;13.370;2023-02-11T07:46:05;57.37;;;33.37;;
9771;SDS011;4925;52.588;13.370;2023-02-11T07:48:32;51.17;;;31.93;;
9771;SDS011;4925;52.588;13.370;2023-02-11T07:51:08;67.23;;;35.47;;
9771;SDS011;4925;52.588;13.370;2023-02-11T07:53:39;60.33;;;35.10;;
9771;SDS011;4925;52.588;13.370;2023-02-11T07:56:05;59.60;;;33.27;;
9771;SDS011;4925;52.588;13.370;2023-02-11T07:58:32;57.37;;;32.67;;
9771;SDS011;4925;52.588;13.370;2023-02-11T08:01:02;59.43;;;33.03;;
9771;SDS011;4925;52.588;13.370;2023-02-11T08:03:29;58.03;;;34.03;;
9771;SDS011;4925;52.588;13.370;2023-02-11T08:05:55;61.77;;;31.77;;
9771;SDS011;4925;52.588;13.370;2023-02-11T08:08:21;62.87;;;32.03;;
9771;SDS011;4925;52.588;13.370;2023-02-11T08:10:47;62.00;;;33.50;;
9771;SDS011;4925;52.588;13.370;2023-02-11T08:13:12;55.03;;;31.80;;
9771;SDS011;4925;52.588;13.370;2023-02-11T08:15:38;55.47;;;30.93;;
9771;SDS011;4925;52.588;13.370;2023-02-11T08:18:03;64.67;;;31.43;;
9771;SDS011;4925;52.588;13.370;2023-02-11T08:20:29;59.07;;;31.53;;
9771;SDS011;4925;52.588;13.370;2023-02-11T08:22:55;54.57;;;31.90;;
9771;SDS011;4925;52.588;13.370;2023-02-11T08:25:20;56.63;;;30.37;;
9771;SDS011;4925;52.588;13.370;2023-02-11T08:27:46;59.37;;;34.07;;
9771;SDS011;4925;52.588;13.370;2023-02-11T08:30:12;62.63;;;34.03;;
9771;SDS011;4925;52.588;13.370;2023-02-11T08:32:38;60.97;;;29.43;;
9771;SDS011;4925;52.588;13.370;2023-02-11T08:35:04;65.53;;;32.97;;
9771;SDS011;4925;52.588;13.370;2023-02-11T08:37:31;60.17;;;32.97;;
9771;SDS011;4925;52.588;13.370;2023-02-11T08:39:57;52.80;;;29.43;;
9771;SDS011;4925;52.588;13.370;2023-02-11T08:42:23;62.47;;;32.67;;
9771;SDS011;4925;52.588;13.370;2023-02-11T08:44:48;60.57;;;35.67;;
9771;SDS011;4925;52.588;13.370;2023-02-11T08:47:14;59.20;;;34.27;;
9771;SDS011;4925;52.588;13.370;2023-02-11T08:49:40;56.90;;;32.50;;
9771;SDS011;4925;52.588;13.370;2023-02-11T08:52:06;56.10;;;31.27;;
9771;SDS011;4925;52.588;13.370;2023-02-11T08:54:32;55.57;;;32.27;;
9771;SDS011;4925;52.588;13.370;2023-02-11T08:56:58;58.73;;;32.63;;
9771;SDS011;4925;52.588;13.370;2023-02-11T08:59:25;61.47;;;33.20;;
9771;SDS011;4925;52.588;13.370;2023-02-11T09:01:52;62.67;;;32.30;;
9771;SDS011;4925;52.588;13.370;2023-02-11T09:04:18;55.73;;;29.53;;
9771;SDS011;4925;52.588;13.370;2023-02-11T09:06:43;63.33;;;32.77;;
9771;SDS011;4925;52.588;13.370;2023-02-11T09:09:11;61.33;;;33.90;;
9771;SDS011;4925;52.588;13.370;2023-02-11T09:11:38;59.10;;;30.67;;
9771;SDS011;4925;52.588;13.370;2023-02-11T09:14:05;66.47;;;35.40;;
9771;SDS011;4925;52.588;13.370;2023-02-11T09:16:33;53.93;;;32.87;;
9771;SDS011;4925;52.588;13.370;2023-02-11T09:19:01;55.23;;;31.77;;
9771;SDS011;4925;52.588;13.370;2023-02-11T09:21:28;59.20;;;33.50;;
9771;SDS011;4925;52.588;13.370;2023-02-11T09:23:54;57.73;;;34.40;;
9771;SDS011;4925;52.588;13.370;2023-02-11T09:26:25;55.37;;;31.83;;
9771;SDS011;4925;52.588;13.370;2023-02-11T09:28:52;51.97;;;30.03;;
9771;SDS011;4925;52.588;13.370;2023-02-11T09:31:19;56.13;;;32.87;;
9771;SDS011;4925;52.588;13.370;2023-02-11T09:33:47;54.73;;;30.07;;
9771;SDS011;4925;52.588;13.370;2023-02-11T09:36:16;59.43;;;29.97;;
9771;SDS011;4925;52.588;13.370;2023-02-11T09:38:47;59.57;;;31.13;;
9771;SDS011;4925;52.588;13.370;2023-02-11T09:41:58;59.50;;;30.07;;
9771;SDS011;4925;52.588;13.370;2023-02-11T09:44:22;56.13;;;29.60;;
9771;SDS011;4925;52.588;13.370;2023-02-11T09:46:55;53.40;;;29.53;;
9771;SDS011;4925;52.588;13.370;2023-02-11T09:49:34;54.10;;;30.00;;
9771;SDS011;4925;52.588;13.370;2023-02-11T09:54:55;50.47;;;28.73;;
9771;SDS011;4925;52.588;13.370;2023-02-11T09:57:41;59.20;;;30.23;;
9771;SDS011;4925;52.588;13.370;2023-02-11T10:00:17;49.70;;;27.77;;
9771;SDS011;4925;52.588;13.370;2023-02-11T10:02:55;57.50;;;31.63;;
9771;SDS011;4925;52.588;13.370;2023-02-11T10:08:17;50.37;;;26.70;;
9771;SDS011;4925;52.588;13.370;2023-02-11T10:11:07;50.60;;;29.33;;
9771;SDS011;4925;52.588;13.370;2023-02-11T10:16:22;56.30;;;31.00;;
9771;SDS011;4925;52.588;13.370;2023-02-11T10:22:14;61.13;;;31.37;;
9771;SDS011;4925;52.588;13.370;2023-02-11T10:24:43;59.87;;;29.87;;
9771;SDS011;4925;52.588;13.370;2023-02-11T10:27:23;55.90;;;31.97;;
9771;SDS011;4925;52.588;13.370;2023-02-11T10:30:03;49.33;;;30.50;;
9771;SDS011;4925;52.588;13.370;2023-02-11T10:35:32;47.83;;;27.40;;
9771;SDS011;4925;52.588;13.370;2023-02-11T10:37:58;53.83;;;30.63;;
9771;SDS011;4925;52.588;13.370;2023-02-11T10:40:27;55.23;;;27.87;;
9771;SDS011;4925;52.588;13.370;2023-02-11T10:42:55;48.50;;;29.00;;
9771;SDS011;4925;52.588;13.370;2023-02-11T10:48:05;59.87;;;30.10;;
9771;SDS011;4925;52.588;13.370;2023-02-11T10:50:54;55.50;;;28.43;;
9771;SDS011;4925;52.588;13.370;2023-02-11T10:53:37;45.47;;;24.90;;
9771;SDS011;4925;52.588;13.370;2023-02-11T10:56:03;50.47;;;26.27;;
9771;SDS011;4925;52.588;13.370;2023-02-11T11:01:01;47.50;;;27.43;;
9771;SDS011;4925;52.588;13.370;2023-02-11T11:03:28;50.80;;;26.30;;
9771;SDS011;4925;52.588;13.370;2023-02-11T11:06:01;49.60;;;26.87;;
9771;SDS011;4925;52.588;13.370;2023-02-11T11:08:43;44.27;;;25.57;;
9771;SDS011;4925;52.588;13.370;2023-02-11T11:11:11;40.50;;;24.90;;
9771;SDS011;4925;52.588;13.370;2023-02-11T11:13:40;53.10;;;27.23;;
9771;SDS011;4925;52.588;13.370;2023-02-11T11:16:40;47.83;;;28.03;;
9771;SDS011;4925;52.588;13.370;2023-02-11T11:19:23;50.17;;;27.00;;
9771;SDS011;4925;52.588;13.370;2023-02-11T11:21:52;44.67;;;24.67;;
9771;SDS011;4925;52.588;13.370;2023-02-11T11:24:22;48.40;;;24.90;;
9771;SDS011;4925;52.588;13.370;2023-02-11T11:26:54;45.47;;;25.10;;
9771;SDS011;4925;52.588;13.370;2023-02-11T11:31:59;38.67;;;24.07;;
9771;SDS011;4925;52.588;13.370;2023-02-11T11:36:59;40.53;;;24.30;;
9771;SDS011;4925;52.588;13.370;2023-02-11T11:39:33;40.13;;;21.80;;
9771;SDS011;4925;52.588;13.370;2023-02-11T11:42:03;34.60;;;19.37;;
9771;SDS011;4925;52.588;13.370;2023-02-11T11:44:45;43.63;;;23.63;;
9771;SDS011;4925;52.588;13.370;2023-02-11T11:47:53;38.23;;;22.70;;
9771;SDS011;4925;52.588;13.370;2023-02-11T11:50:28;35.07;;;20.33;;
9771;SDS011;4925;52.588;13.370;2023-02-11T11:53:09;37.50;;;21.77;;
9771;SDS011;4925;52.588;13.370;2023-02-11T11:56:05;38.60;;;19.33;;
9771;SDS011;4925;52.588;13.370;2023-02-11T12:01:44;33.03;;;20.30;;
9771;SDS011;4925;52.588;13.370;2023-02-11T12:04:24;31.53;;;20.20;;
9771;SDS011;4925;52.588;13.370;2023-02-11T12:15:10;32.83;;;18.03;;
9771;SDS011;4925;52.588;13.370;2023-02-11T12:23:18;26.33;;;15.83;;
9771;SDS011;4925;52.588;13.370;2023-02-11T12:35:08;28.13;;;17.33;;
9771;SDS011;4925;52.588;13.370;2023-02-11T12:40:03;27.20;;;16.97;;
9771;SDS011;4925;52.588;13.370;2023-02-11T12:42:49;32.33;;;19.57;;
9771;SDS011;4925;52.588;13.370;2023-02-11T12:54:27;24.47;;;15.40;;
9771;SDS011;4925;52.588;13.370;2023-02-11T12:57:02;26.20;;;17.00;;
9771;SDS011;4925;52.588;13.370;2023-02-11T13:02:43;24.73;;;15.37;;
9771;SDS011;4925;52.588;13.370;2023-02-11T13:05:33;25.10;;;14.97;;
9771;SDS011;4925;52.588;13.370;2023-02-11T13:08:15;28.67;;;16.80;;
9771;SDS011;4925;52.588;13.370;2023-02-11T13:10:51;25.67;;;16.50;;
9771;SDS011;4925;52.588;13.370;2023-02-11T13:13:27;24.80;;;15.23;;
9771;SDS011;4925;52.588;13.370;2023-02-11T13:16:05;24.83;;;15.73;;
9771;SDS011;4925;52.588;13.370;2023-02-11T13:21:49;27.47;;;14.40;;
9771;SDS011;4925;52.588;13.370;2023-02-11T13:30:26;20.00;;;12.97;;
9771;SDS011;4925;52.588;13.370;2023-02-11T13:35:28;24.70;;;14.77;;
9771;SDS011;4925;52.588;13.370;2023-02-11T13:37:55;23.83;;;16.37;;
9771;SDS011;4925;52.588;13.370;2023-02-11T13:40:25;20.27;;;14.10;;
9771;SDS011;4925;52.588;13.370;2023-02-11T13:43:04;20.40;;;13.00;;
9771;SDS011;4925;52.588;13.370;2023-02-11T13:45:43;22.07;;;13.33;;
9771;SDS011;4925;52.588;13.370;2023-02-11T13:50:47;17.20;;;12.37;;
9771;SDS011;4925;52.588;13.370;2023-02-11T13:53:15;18.50;;;11.70;;
9771;SDS011;4925;52.588;13.370;2023-02-11T13:55:43;18.37;;;11.57;;
9771;SDS011;4925;52.588;13.370;2023-02-11T14:00:43;18.80;;;13.33;;
9771;SDS011;4925;52.588;13.370;2023-02-11T14:14:26;20.17;;;12.70;;
9771;SDS011;4925;52.588;13.370;2023-02-11T14:19:36;20.23;;;13.60;;
9771;SDS011;4925;52.588;13.370;2023-02-11T14:22:21;19.40;;;11.57;;
9771;SDS011;4925;52.588;13.370;2023-02-11T14:36:12;18.33;;;10.63;;
9771;SDS011;4925;52.588;13.370;2023-02-11T14:38:51;19.10;;;12.47;;
9771;SDS011;4925;52.588;13.370;2023-02-11T14:41:40;17.13;;;12.07;;
9771;SDS011;4925;52.588;13.370;2023-02-11T14:44:16;16.50;;;11.30;;
9771;SDS011;4925;52.588;13.370;2023-02-11T14:46:45;15.20;;;10.00;;
9771;SDS011;4925;52.588;13.370;2023-02-11T14:49:26;15.90;;;11.07;;
9771;SDS011;4925;52.588;13.370;2023-02-11T14:51:56;17.60;;;11.47;;
9771;SDS011;4925;52.588;13.370;2023-02-11T14:54:36;17.73;;;11.73;;
9771;SDS011;4925;52.588;13.370;2023-02-11T14:57:11;17.63;;;11.67;;
9771;SDS011;4925;52.588;13.370;2023-02-11T14:59:39;15.80;;;11.20;;
9771;SDS011;4925;52.588;13.370;2023-02-11T15:02:23;14.93;;;10.97;;
9771;SDS011;4925;52.588;13.370;2023-02-11T15:04:53;14.40;;;11.13;;
9771;SDS011;4925;52.588;13.370;2023-02-11T15:07:41;13.07;;;10.30;;
9771;SDS011;4925;52.588;13.370;2023-02-11T15:10:13;15.07;;;9.57;;
9771;SDS011;4925;52.588;13.370;2023-02-11T15:12:46;14.23;;;10.27;;
9771;SDS011;4925;52.588;13.370;2023-02-11T15:15:13;12.40;;;9.60;;
9771;SDS011;4925;52.588;13.370;2023-02-11T15:17:40;14.80;;;9.67;;
9771;SDS011;4925;52.588;13.370;2023-02-11T15:20:12;13.70;;;10.83;;
9771;SDS011;4925;52.588;13.370;2023-02-11T15:22:43;14.87;;;10.70;;
9771;SDS011;4925;52.588;13.370;2023-02-11T15:25:12;14.80;;;10.30;;
9771;SDS011;4925;52.588;13.370;2023-02-11T15:27:47;14.53;;;10.97;;
9771;SDS011;4925;52.588;13.370;2023-02-11T15:32:46;13.77;;;9.97;;
9771;SDS011;4925;52.588;13.370;2023-02-11T15:35:12;12.37;;;10.33;;
9771;SDS011;4925;52.588;13.370;2023-02-11T15:37:38;14.50;;;9.87;;
9771;SDS011;4925;52.588;13.370;2023-02-11T15:40:14;12.87;;;10.07;;
9771;SDS011;4925;52.588;13.370;2023-02-11T15:42:53;14.17;;;10.23;;
9771;SDS011;4925;52.588;13.370;2023-02-11T15:45:27;17.40;;;9.67;;
9771;SDS011;4925;52.588;13.370;2023-02-11T15:47:58;13.47;;;9.60;;
9771;SDS011;4925;52.588;13.370;2023-02-11T15:50:31;13.67;;;9.70;;
9771;SDS011;4925;52.588;13.370;2023-02-11T15:53:00;10.83;;;8.53;;
9771;SDS011;4925;52.588;13.370;2023-02-11T15:55:36;10.43;;;8.40;;
9771;SDS011;4925;52.588;13.370;2023-02-11T15:58:06;12.07;;;9.27;;
9771;SDS011;4925;52.588;13.370;2023-02-11T16:00:43;12.47;;;7.87;;
9771;SDS011;4925;52.588;13.370;2023-02-11T16:03:21;8.43;;;7.57;;
9771;SDS011;4925;52.588;13.370;2023-02-11T16:05:49;9.27;;;7.40;;
9771;SDS011;4925;52.588;13.370;2023-02-11T16:08:26;9.37;;;7.43;;
9771;SDS011;4925;52.588;13.370;2023-02-11T16:11:01;9.67;;;7.57;;
9771;SDS011;4925;52.588;13.370;2023-02-11T16:13:32;12.10;;;9.07;;
9771;SDS011;4925;52.588;13.370;2023-02-11T16:16:18;10.20;;;7.93;;
9771;SDS011;4925;52.588;13.370;2023-02-11T16:18:50;10.83;;;7.60;;
9771;SDS011;4925;52.588;13.370;2023-02-11T16:21:17;8.07;;;7.27;;
9771;SDS011;4925;52.588;13.370;2023-02-11T16:23:52;8.13;;;6.80;;
9771;SDS011;4925;52.588;13.370;2023-02-11T16:28:46;7.53;;;6.03;;
9771;SDS011;4925;52.588;13.370;2023-02-11T16:31:12;6.97;;;6.17;;
9771;SDS011;4925;52.588;13.370;2023-02-11T16:33:38;8.67;;;6.57;;
9771;SDS011;4925;52.588;13.370;2023-02-11T16:36:13;7.43;;;6.70;;
9771;SDS011;4925;52.588;13.370;2023-02-11T16:38:43;7.00;;;6.30;;
9771;SDS011;4925;52.588;13.370;2023-02-11T16:41:09;6.93;;;5.90;;
9771;SDS011;4925;52.588;13.370;2023-02-11T16:43:36;6.30;;;5.70;;
9771;SDS011;4925;52.588;13.370;2023-02-11T16:46:03;6.20;;;5.53;;
9771;SDS011;4925;52.588;13.370;2023-02-11T16:48:29;7.00;;;5.70;;
9771;SDS011;4925;52.588;13.370;2023-02-11T16:50:56;6.60;;;5.73;;
9771;SDS011;4925;52.588;13.370;2023-02-11T16:53:22;5.57;;;4.90;;
9771;SDS011;4925;52.588;13.370;2023-02-11T16:55:49;5.83;;;5.23;;
9771;SDS011;4925;52.588;13.370;2023-02-11T16:58:15;7.00;;;5.20;;
9771;SDS011;4925;52.588;13.370;2023-02-11T17:00:42;5.70;;;5.10;;
9771;SDS011;4925;52.588;13.370;2023-02-11T17:03:11;6.17;;;5.23;;
9771;SDS011;4925;52.588;13.370;2023-02-11T17:05:46;6.33;;;5.73;;
9771;SDS011;4925;52.588;13.370;2023-02-11T17:08:12;7.57;;;5.87;;
9771;SDS011;4925;52.588;13.370;2023-02-11T17:10:38;5.87;;;5.30;;
9771;SDS011;4925;52.588;13.370;2023-02-11T17:13:03;6.33;;;5.73;;
9771;SDS011;4925;52.588;13.370;2023-02-11T17:15:29;6.27;;;5.27;;
9771;SDS011;4925;52.588;13.370;2023-02-11T17:17:56;6.10;;;5.50;;
9771;SDS011;4925;52.588;13.370;2023-02-11T17:20:22;6.90;;;6.07;;
9771;SDS011;4925;52.588;13.370;2023-02-11T17:22:48;7.00;;;5.23;;